createdAt,value
2022-09-21T00:01:36.592Z,98010.91
2022-09-21T00:04:06.249Z,98116.34
2022-09-21T00:06:35.788Z,98109.34
2022-09-21T00:09:05.414Z,98101.59
2022-09-21T00:11:35.232Z,98111.97
2022-09-21T00:14:07.417Z,98103.19
2022-09-21T00:16:35.788Z,98112.75
2022-09-21T00:19:06.933Z,98108.28
2022-09-21T00:21:35.975Z,98102.19
2022-09-21T00:24:04.552Z,98101.31
2022-09-21T00:26:33.292Z,98101.56
2022-09-21T00:29:03.341Z,98095.31
2022-09-21T00:31:32.643Z,98085.88
2022-09-21T00:34:03.776Z,98108.44
2022-09-21T00:36:33.340Z,98097.13
2022-09-21T00:39:02.754Z,98103.22
2022-09-21T00:41:33.488Z,98106.72
2022-09-21T00:44:24.739Z,98112.91
2022-09-21T00:46:55.169Z,98093.06
2022-09-21T00:49:24.336Z,98116.44
2022-09-21T00:51:54.479Z,98120.84
2022-09-21T00:54:27.498Z,98109.66
2022-09-21T00:56:59.923Z,98018.34
2022-09-21T00:59:30.215Z,98102.25
2022-09-21T01:02:00.182Z,98127.44
2022-09-21T01:04:28.951Z,98112.69
2022-09-21T01:07:01.511Z,98123.16
2022-09-21T01:09:30.145Z,98120.44
2022-09-21T01:12:11.331Z,98109.31
2022-09-21T01:15:11.632Z,98117.94
2022-09-21T01:17:47.329Z,98117.94
2022-09-21T01:20:35.519Z,98073.78
2022-09-21T01:23:18.359Z,98103.88
2022-09-21T01:26:04.072Z,98117.72
2022-09-21T01:28:55.039Z,98122.81
2022-09-21T01:31:29.228Z,98109.88
2022-09-21T01:34:03.130Z,98101.31
2022-09-21T01:36:33.118Z,98117.78
2022-09-21T01:39:06.823Z,98094.53
2022-09-21T01:41:36.689Z,98112.59
2022-09-21T01:44:12.284Z,98118.72
2022-09-21T01:46:41.058Z,98113.53
2022-09-21T01:49:14.128Z,98120.50
2022-09-21T01:51:47.551Z,98110.88
2022-09-21T01:54:21.861Z,98118.78
2022-09-21T01:56:56.600Z,98113.41
2022-09-21T01:59:32.913Z,98123.88
2022-09-21T02:02:06.207Z,98118.78
2022-09-21T02:04:36.371Z,98066.09
2022-09-21T02:07:04.569Z,98122.41
2022-09-21T02:09:33.558Z,98116.41
2022-09-21T02:12:02.342Z,98125.97
2022-09-21T02:14:34.770Z,98104.31
2022-09-21T02:17:09.532Z,98115.56
2022-09-21T02:19:44.864Z,98089.50
2022-09-21T02:22:17.044Z,98118.19
2022-09-21T02:24:47.663Z,98118.81
2022-09-21T02:27:25.480Z,98113.63
2022-09-21T02:30:04.029Z,98106.75
2022-09-21T02:32:39.533Z,98118.78
2022-09-21T02:35:17.462Z,98107.72
2022-09-21T02:37:49.878Z,98120.75
2022-09-21T02:40:26.869Z,98105.19
2022-09-21T02:42:59.818Z,98115.59
2022-09-21T02:45:34.491Z,98100.03
2022-09-21T02:48:07.339Z,98118.31
2022-09-21T02:50:40.312Z,97995.69
2022-09-21T02:53:10.308Z,98115.75
2022-09-21T02:55:39.796Z,98122.66
2022-09-21T02:58:11.678Z,98119.22
2022-09-21T03:00:41.842Z,98126.22
2022-09-21T03:03:18.680Z,98130.63
2022-09-21T03:05:49.801Z,98125.44
2022-09-21T03:08:18.495Z,98131.56
2022-09-21T03:10:46.951Z,98140.28
2022-09-21T03:13:15.286Z,98074.53
2022-09-21T03:15:45.898Z,98116.09
2022-09-21T03:18:15.258Z,98144.72
2022-09-21T03:20:46.799Z,98089.47
2022-09-21T03:23:15.416Z,98154.25
2022-09-21T03:25:46.257Z,98143.78
2022-09-21T03:28:14.948Z,98148.91
2022-09-21T03:30:44.967Z,98057.22
2022-09-21T03:33:13.969Z,98133.31
2022-09-21T03:35:42.298Z,98150.66
2022-09-21T03:38:10.555Z,98150.69
2022-09-21T03:40:39.024Z,98152.41
2022-09-21T03:43:07.178Z,98157.66
2022-09-21T03:45:35.970Z,98123.03
2022-09-21T03:48:05.590Z,98133.44
2022-09-21T03:50:33.914Z,98148.16
2022-09-21T03:53:02.082Z,98134.22
2022-09-21T03:55:31.312Z,98154.28
2022-09-21T03:57:59.450Z,98149.06
2022-09-21T04:00:27.611Z,98146.53
2022-09-21T04:02:55.740Z,98144.81
2022-09-21T04:05:25.374Z,98162.16
2022-09-21T04:07:53.492Z,98157.00
2022-09-21T04:10:29.561Z,98160.53
2022-09-21T04:12:59.259Z,98122.47
2022-09-21T04:15:27.340Z,98155.31
2022-09-21T04:17:55.640Z,98160.53
2022-09-21T04:20:25.331Z,98161.41
2022-09-21T04:22:53.483Z,98156.19
2022-09-21T04:25:21.711Z,98162.25
2022-09-21T04:27:49.809Z,98150.97
2022-09-21T04:30:18.354Z,98169.22
2022-09-21T04:32:46.651Z,98177.06
2022-09-21T04:35:14.832Z,98146.63
2022-09-21T04:37:44.356Z,98164.81
2022-09-21T04:40:12.477Z,98157.91
2022-09-21T04:42:40.634Z,98144.16
2022-09-21T04:45:09.920Z,98170.06
2022-09-21T04:47:38.134Z,98156.31
2022-09-21T04:50:07.316Z,98189.22
2022-09-21T04:52:35.430Z,98184.03
2022-09-21T04:55:05.371Z,98184.91
2022-09-21T04:57:33.638Z,98208.38
2022-09-21T05:00:01.859Z,98194.44
2022-09-21T05:02:29.920Z,98186.59
2022-09-21T05:04:58.422Z,98172.75
2022-09-21T05:07:26.494Z,98190.00
2022-09-21T05:10:05.530Z,98194.31
2022-09-21T05:12:40.878Z,98188.09
2022-09-21T05:15:11.583Z,98172.44
2022-09-21T05:17:39.653Z,98188.81
2022-09-21T05:20:08.273Z,98190.38
2022-09-21T05:22:36.376Z,98190.31
2022-09-21T05:25:04.684Z,98195.38
2022-09-21T05:27:34.611Z,98197.88
2022-09-21T05:30:03.347Z,98197.00
2022-09-21T05:32:44.293Z,98079.28
2022-09-21T05:35:23.832Z,98202.00
2022-09-21T05:37:58.777Z,98201.84
2022-09-21T05:40:27.685Z,98205.13
2022-09-21T05:42:57.931Z,98214.59
2022-09-21T05:45:28.916Z,98213.56
2022-09-21T05:48:16.992Z,98191.81
2022-09-21T05:50:57.287Z,98214.88
2022-09-21T05:53:51.687Z,98216.41
2022-09-21T05:56:41.810Z,98216.09
2022-09-21T05:59:38.235Z,98215.88
2022-09-21T06:02:16.995Z,98211.41
2022-09-21T06:04:45.790Z,98223.34
2022-09-21T06:07:13.910Z,98223.00
2022-09-21T06:09:43.288Z,98229.78
2022-09-21T06:12:11.992Z,98210.28
2022-09-21T06:14:42.144Z,98210.13
2022-09-21T06:17:10.381Z,98190.78
2022-09-21T06:19:38.491Z,98211.13
2022-09-21T06:22:06.679Z,98222.88
2022-09-21T06:24:34.830Z,98216.44
2022-09-21T06:27:02.903Z,98224.88
2022-09-21T06:29:31.030Z,98208.88
2022-09-21T06:32:01.161Z,98221.31
2022-09-21T06:34:29.672Z,98214.84
2022-09-21T06:36:57.931Z,98220.69
2022-09-21T06:39:26.204Z,98185.75
2022-09-21T06:41:54.332Z,98211.31
2022-09-21T06:44:22.394Z,98223.31
2022-09-21T06:46:50.534Z,98216.69
2022-09-21T06:49:20.010Z,98136.44
2022-09-21T06:51:49.011Z,98181.88
2022-09-21T06:54:17.619Z,98207.53
2022-09-21T06:56:45.862Z,98210.22
2022-09-21T06:59:14.132Z,98203.25
2022-09-21T07:01:42.360Z,98214.75
2022-09-21T07:04:10.778Z,98213.66
2022-09-21T07:06:40.271Z,98200.50
2022-09-21T07:11:56.385Z,98239.94
2022-09-21T07:14:24.529Z,98228.91
2022-09-21T07:16:53.970Z,98226.69
2022-09-21T07:19:22.068Z,98201.22
2022-09-21T07:21:52.468Z,98223.50
2022-09-21T07:24:20.572Z,98218.78
2022-09-21T07:26:49.516Z,98222.91
2022-09-21T07:29:17.671Z,98231.06
2022-09-21T07:31:46.164Z,98221.78
2022-09-21T07:34:14.320Z,98227.44
2022-09-21T07:36:42.913Z,98218.78
2022-09-21T07:39:12.603Z,98209.91
2022-09-21T07:41:40.762Z,98231.41
2022-09-21T07:44:08.831Z,98234.75
2022-09-21T07:46:41.241Z,98235.53
2022-09-21T07:49:13.630Z,98219.66
2022-09-21T07:51:41.771Z,98232.06
2022-09-21T07:54:11.238Z,98225.81
2022-09-21T07:56:40.788Z,98226.56
2022-09-21T07:59:08.874Z,98212.94
2022-09-21T08:01:39.267Z,98209.38
2022-09-21T08:04:09.661Z,98230.75
2022-09-21T08:06:40.338Z,98226.84
2022-09-21T08:09:09.935Z,98201.19
2022-09-21T08:11:39.259Z,98204.16
2022-09-21T08:14:08.722Z,98230.72
2022-09-21T08:16:39.969Z,98223.38
2022-09-21T08:19:08.301Z,98218.91
2022-09-21T08:21:36.668Z,98195.81
2022-09-21T08:24:05.060Z,98227.25
2022-09-21T08:26:33.656Z,98210.50
2022-09-21T08:29:01.738Z,98224.09
2022-09-21T08:31:31.320Z,98223.09
2022-09-21T08:34:00.880Z,98224.09
2022-09-21T08:36:29.036Z,98194.81
2022-09-21T08:38:57.297Z,98222.31
2022-09-21T08:41:36.632Z,98197.91
2022-09-21T08:44:12.508Z,98212.31
2022-09-21T08:46:44.654Z,98225.81
2022-09-21T08:49:17.258Z,98212.44
2022-09-21T08:51:52.032Z,98223.09
2022-09-21T08:54:28.610Z,98202.28
2022-09-21T08:57:05.953Z,98207.25
2022-09-21T08:59:35.481Z,98223.09
2022-09-21T09:02:23.929Z,98220.75
2022-09-21T09:04:59.548Z,98212.03
2022-09-21T09:07:49.401Z,98213.50
2022-09-21T09:10:35.318Z,98228.69
2022-09-21T09:13:18.299Z,98218.19
2022-09-21T09:15:55.791Z,98226.22
2022-09-21T09:18:40.204Z,98221.78
2022-09-21T09:21:25.923Z,98214.00
2022-09-21T09:24:00.618Z,98214.84
2022-09-21T09:26:35.258Z,98210.47
2022-09-21T09:29:14.198Z,98179.31
2022-09-21T09:31:43.105Z,98210.53
2022-09-21T09:34:18.148Z,98212.03
2022-09-21T09:36:59.171Z,98212.44
2022-09-21T09:39:31.046Z,98204.78
2022-09-21T09:42:14.083Z,98168.72
2022-09-21T09:45:00.737Z,98201.91
2022-09-21T09:47:42.478Z,98205.41
2022-09-21T09:50:14.818Z,98203.84
2022-09-21T09:52:45.408Z,98186.88
2022-09-21T09:55:20.390Z,98180.28
2022-09-21T09:57:49.535Z,98196.94
2022-09-21T10:00:21.428Z,98182.16
2022-09-21T10:02:51.922Z,98189.81
2022-09-21T10:05:26.972Z,98189.69
2022-09-21T10:07:55.071Z,98192.41
2022-09-21T10:10:28.009Z,98185.38
2022-09-21T10:12:57.711Z,98172.78
2022-09-21T10:15:26.220Z,98163.44
2022-09-21T10:18:02.290Z,98144.59
2022-09-21T10:20:33.154Z,98174.22
2022-09-21T10:23:02.250Z,98176.94
2022-09-21T10:25:33.207Z,98157.72
2022-09-21T10:28:06.258Z,98179.94
2022-09-21T10:30:38.666Z,98169.59
2022-09-21T10:33:20.658Z,98166.94
2022-09-21T10:35:54.732Z,98155.81
2022-09-21T10:38:28.853Z,98164.78
2022-09-21T10:40:57.064Z,98172.19
2022-09-21T10:43:28.278Z,98160.63
2022-09-21T10:45:58.538Z,98172.25
2022-09-21T10:48:29.298Z,98161.16
2022-09-21T10:50:59.498Z,98171.31
2022-09-21T10:53:29.881Z,98178.75
2022-09-21T10:56:15.603Z,98136.88
2022-09-21T10:59:12.411Z,98180.31
2022-09-21T11:01:45.520Z,98176.03
2022-09-21T11:04:17.191Z,98183.88
2022-09-21T11:06:51.138Z,98169.38
2022-09-21T11:09:23.699Z,98183.28
2022-09-21T11:11:58.379Z,98181.63
2022-09-21T11:14:44.810Z,98189.69
2022-09-21T11:17:18.821Z,98157.25
2022-09-21T11:19:52.527Z,98174.34
2022-09-21T11:22:33.967Z,98150.94
2022-09-21T11:25:11.491Z,98091.31
2022-09-21T11:27:44.172Z,98164.25
2022-09-21T11:30:14.338Z,98158.53
2022-09-21T11:33:11.558Z,98178.34
2022-09-21T11:35:48.974Z,98173.19
2022-09-21T11:38:33.755Z,98167.44
2022-09-21T11:41:19.477Z,98149.94
2022-09-21T11:44:03.533Z,98164.25
2022-09-21T11:46:38.259Z,98136.75
2022-09-21T11:49:28.120Z,98158.50
2022-09-21T11:52:13.502Z,98152.78
2022-09-21T11:54:58.715Z,98154.19
2022-09-21T11:57:31.252Z,98159.22
2022-09-21T12:00:16.632Z,98134.44
2022-09-21T12:03:11.873Z,98152.84
2022-09-21T12:05:46.579Z,98132.88
2022-09-21T12:08:30.218Z,98140.91
2022-09-21T12:11:07.498Z,98138.91
2022-09-21T12:13:42.062Z,98142.75
2022-09-21T12:16:19.658Z,98128.78
2022-09-21T12:18:56.284Z,98120.31
2022-09-21T12:21:27.838Z,98132.88
2022-09-21T12:23:58.333Z,98119.34
2022-09-21T12:26:33.489Z,98132.19
2022-09-21T12:29:05.879Z,98131.53
2022-09-21T12:31:41.141Z,98116.47
2022-09-21T12:34:16.781Z,98077.81
2022-09-21T12:36:48.972Z,98133.53
2022-09-21T12:39:26.321Z,98127.91
2022-09-21T12:42:02.138Z,98113.41
2022-09-21T12:44:52.275Z,98130.78
2022-09-21T12:47:25.612Z,98135.44
2022-09-21T12:49:58.811Z,98120.78
2022-09-21T12:52:28.784Z,98125.00
2022-09-21T12:55:06.769Z,98127.31
2022-09-21T12:58:14.496Z,98120.00
2022-09-21T13:00:50.897Z,98120.06
2022-09-21T13:03:27.232Z,98128.03
2022-09-21T13:06:30.628Z,98090.63
2022-09-21T13:09:05.113Z,98124.81
2022-09-21T13:11:36.373Z,98117.31
2022-09-21T13:14:06.561Z,98109.81
2022-09-21T13:16:38.616Z,98113.22
2022-09-21T13:19:18.198Z,98109.59
2022-09-21T13:21:46.378Z,98088.50
2022-09-21T13:24:28.752Z,98109.84
2022-09-21T13:27:06.730Z,98095.34
2022-09-21T13:29:38.278Z,98093.81
2022-09-21T13:32:24.037Z,98058.81
2022-09-21T13:34:52.428Z,98099.06
2022-09-21T13:37:33.499Z,98059.22
2022-09-21T13:40:41.614Z,98090.53
2022-09-21T13:43:59.723Z,98078.41
2022-09-21T13:46:51.811Z,98087.81
2022-09-21T13:49:29.341Z,98071.72
2022-09-21T13:52:02.027Z,98092.44
2022-09-21T13:54:35.376Z,98087.91
2022-09-21T13:57:17.097Z,98088.91
2022-09-21T13:59:47.071Z,98027.00
2022-09-21T14:02:33.200Z,98083.63
2022-09-21T14:05:08.278Z,98071.09
2022-09-21T14:07:37.217Z,98070.34
2022-09-21T14:10:08.458Z,98080.88
2022-09-21T14:12:45.304Z,98014.03
2022-09-21T14:15:39.219Z,98085.88
2022-09-21T14:18:48.122Z,98083.56
2022-09-21T14:21:19.558Z,98008.31
2022-09-21T14:24:10.539Z,98087.38
2022-09-21T14:26:52.223Z,98076.25
2022-09-21T14:29:25.431Z,98074.06
2022-09-21T14:31:57.495Z,98070.22
2022-09-21T14:34:28.921Z,98070.19
2022-09-21T14:37:03.261Z,97992.75
2022-09-21T14:39:35.266Z,98068.59
2022-09-21T14:42:12.730Z,98061.25
2022-09-21T14:44:42.737Z,98044.88
2022-09-21T14:47:31.378Z,98073.69
2022-09-21T14:50:15.380Z,98073.56
2022-09-21T14:53:00.041Z,98080.53
2022-09-21T14:55:34.357Z,98077.81
2022-09-21T14:58:25.039Z,98072.34
2022-09-21T15:00:54.774Z,98048.63
2022-09-21T15:03:46.667Z,98083.78
2022-09-21T15:06:43.291Z,98035.78
2022-09-21T15:10:04.292Z,98072.84
2022-09-21T15:12:42.713Z,98065.34
2022-09-21T15:15:29.698Z,98063.69
2022-09-21T15:17:59.878Z,98063.56
2022-09-21T15:20:30.231Z,98057.69
2022-09-21T15:22:59.978Z,98063.91
2022-09-21T15:25:33.477Z,98065.50
2022-09-21T15:28:02.132Z,98069.72
2022-09-21T15:30:33.956Z,98066.38
2022-09-21T15:33:03.792Z,98075.47
2022-09-21T15:35:33.934Z,98064.94
2022-09-21T15:38:02.673Z,98033.97
2022-09-21T15:40:34.029Z,98079.19
2022-09-21T15:43:05.860Z,98086.28
2022-09-21T15:45:45.003Z,98090.66
2022-09-21T15:48:13.679Z,98083.47
2022-09-21T15:50:43.702Z,98042.50
2022-09-21T15:53:21.992Z,98094.13
2022-09-21T15:55:52.548Z,98089.53
2022-09-21T15:58:37.427Z,98070.09
2022-09-21T16:01:11.656Z,98051.47
2022-09-21T16:03:40.707Z,98088.06
2022-09-21T16:06:29.233Z,98098.81
2022-09-21T16:08:57.449Z,98091.84
2022-09-21T16:11:37.934Z,98100.91
2022-09-21T16:14:29.519Z,98033.16
2022-09-21T16:17:23.982Z,98113.06
2022-09-21T16:20:20.017Z,98115.97
2022-09-21T16:22:50.770Z,98091.34
2022-09-21T16:25:38.497Z,98118.38
2022-09-21T16:28:29.542Z,98042.16
2022-09-21T16:30:59.345Z,98117.31
2022-09-21T16:33:44.819Z,98112.28
2022-09-21T16:36:38.097Z,98122.44
2022-09-21T16:39:14.910Z,98028.88
2022-09-21T16:41:50.518Z,98103.84
2022-09-21T16:44:22.961Z,98122.16
2022-09-21T16:47:00.344Z,98110.00
2022-09-21T16:49:33.671Z,98136.03
2022-09-21T16:52:02.031Z,98134.50
2022-09-21T16:54:30.939Z,98112.47
2022-09-21T16:57:00.656Z,98071.88
2022-09-21T16:59:30.855Z,98135.44
2022-09-21T17:02:00.598Z,98128.72
2022-09-21T17:04:31.314Z,98132.50
2022-09-21T17:07:00.556Z,98103.34
2022-09-21T17:09:32.587Z,98046.72
2022-09-21T17:12:01.730Z,98125.25
2022-09-21T17:14:35.565Z,98112.31
2022-09-21T17:17:08.562Z,98145.56
2022-09-21T17:19:37.231Z,98147.28
2022-09-21T17:22:07.133Z,98150.06
2022-09-21T17:24:50.212Z,98133.22
2022-09-21T17:27:21.336Z,98132.50
2022-09-21T17:29:53.933Z,98039.88
2022-09-21T17:32:24.274Z,98174.84
2022-09-21T17:34:58.929Z,98162.47
2022-09-21T17:37:27.429Z,98141.22
2022-09-21T17:39:55.579Z,98154.34
2022-09-21T17:42:26.064Z,98145.94
2022-09-21T17:45:04.649Z,98079.75
2022-09-21T17:47:34.139Z,98168.66
2022-09-21T17:50:19.668Z,98181.13
2022-09-21T17:53:05.974Z,98144.13
2022-09-21T17:55:34.810Z,98156.25
2022-09-21T17:58:28.218Z,98166.06
2022-09-21T18:01:02.357Z,98162.78
2022-09-21T18:03:36.012Z,98177.78
2022-09-21T18:06:04.872Z,98168.41
2022-09-21T18:08:34.768Z,98184.78
2022-09-21T18:11:18.679Z,98187.91
2022-09-21T18:13:55.438Z,98195.22
2022-09-21T18:16:37.438Z,98095.59
2022-09-21T18:19:19.022Z,98188.56
2022-09-21T18:21:51.061Z,98155.13
2022-09-21T18:24:27.415Z,98191.97
2022-09-21T18:26:58.852Z,98198.28
2022-09-21T18:29:46.001Z,98178.31
2022-09-21T18:32:41.203Z,98180.81
2022-09-21T18:35:25.331Z,98208.09
2022-09-21T18:38:10.641Z,98196.16
2022-09-21T18:40:49.094Z,98188.69
2022-09-21T18:43:27.700Z,98117.72
2022-09-21T18:46:02.628Z,98214.63
2022-09-21T18:48:50.581Z,98140.47
2022-09-21T18:51:25.196Z,98195.97
2022-09-21T18:53:56.163Z,98192.63
2022-09-21T18:56:26.368Z,98219.72
2022-09-21T18:58:56.194Z,98162.84
2022-09-21T19:01:27.332Z,98220.50
2022-09-21T19:03:57.841Z,98221.50
2022-09-21T19:06:39.771Z,98212.06
2022-09-21T19:09:23.228Z,98195.72
2022-09-21T19:12:00.134Z,98215.03
2022-09-21T19:14:38.565Z,98227.31
2022-09-21T19:17:18.021Z,98226.53
2022-09-21T19:20:14.392Z,98211.19
2022-09-21T19:22:49.558Z,98206.84
2022-09-21T19:25:28.380Z,98185.28
2022-09-21T19:28:01.930Z,98207.56
2022-09-21T19:30:30.678Z,98211.88
2022-09-21T19:33:00.659Z,98204.97
2022-09-21T19:35:32.099Z,98198.63
2022-09-21T19:38:03.008Z,98228.03
2022-09-21T19:40:33.534Z,98220.38
2022-09-21T19:43:21.303Z,98229.97
2022-09-21T19:46:05.743Z,98232.63
2022-09-21T19:48:43.226Z,98216.06
2022-09-21T19:51:19.435Z,98233.59
2022-09-21T19:54:12.741Z,98233.03
2022-09-21T19:57:05.902Z,98235.69
2022-09-21T19:59:47.405Z,98228.09
2022-09-21T20:02:20.313Z,98144.38
2022-09-21T20:04:56.982Z,98223.97
2022-09-21T20:07:44.663Z,98208.47
2022-09-21T20:10:51.944Z,98242.22
2022-09-21T20:13:32.412Z,98219.78
2022-09-21T20:16:08.068Z,98246.63
2022-09-21T20:18:43.488Z,98227.66
2022-09-21T20:21:15.117Z,98246.06
2022-09-21T20:23:50.088Z,98223.66
2022-09-21T20:26:24.984Z,98239.31
2022-09-21T20:28:54.079Z,98215.16
2022-09-21T20:31:23.818Z,98134.78
2022-09-21T20:33:52.087Z,98133.00
2022-09-21T20:36:21.161Z,98254.97
2022-09-21T20:38:50.814Z,98251.53
2022-09-21T20:41:19.495Z,98252.50
2022-09-21T20:43:47.748Z,98250.06
2022-09-21T20:46:16.071Z,98219.91
2022-09-21T20:48:44.600Z,98238.06
2022-09-21T20:51:13.221Z,98252.78
2022-09-21T20:53:42.458Z,98255.31
2022-09-21T20:56:13.370Z,98117.00
2022-09-21T20:58:41.464Z,98258.06
2022-09-21T21:01:10.920Z,98245.00
2022-09-21T21:03:39.192Z,98264.94
2022-09-21T21:06:12.171Z,98265.00
2022-09-21T21:08:40.743Z,98267.59
2022-09-21T21:11:10.217Z,98175.06
2022-09-21T21:13:40.617Z,98266.84
2022-09-21T21:16:12.084Z,98265.91
2022-09-21T21:18:41.552Z,98260.75
2022-09-21T21:21:10.312Z,98257.41
2022-09-21T21:23:52.408Z,98262.56
2022-09-21T21:26:20.716Z,98262.63
2022-09-21T21:28:52.933Z,98262.66
2022-09-21T21:31:21.642Z,98242.78
2022-09-21T21:33:49.822Z,98265.28
2022-09-21T21:36:17.959Z,98225.47
2022-09-21T21:38:46.150Z,98240.94
2022-09-21T21:41:15.109Z,97926.44
2022-09-21T21:43:44.778Z,98249.69
2022-09-21T21:46:14.543Z,98254.81
2022-09-21T21:48:42.833Z,98259.13
2022-09-21T21:51:11.050Z,98250.41
2022-09-21T21:53:41.183Z,98202.06
2022-09-21T21:56:11.151Z,98250.56
2022-09-21T21:58:40.250Z,98246.03
2022-09-21T22:01:10.193Z,98220.19
2022-09-21T22:03:40.234Z,98228.81
2022-09-21T22:06:10.400Z,98250.47
2022-09-21T22:08:39.924Z,98239.91
2022-09-21T22:11:08.649Z,98225.53
2022-09-21T22:13:38.582Z,98184.75
2022-09-21T22:16:09.187Z,98241.00
2022-09-21T22:18:39.934Z,98225.59
2022-09-21T22:21:11.331Z,98235.88
2022-09-21T22:23:40.159Z,98229.91
2022-09-21T22:26:11.408Z,98240.28
2022-09-21T22:28:41.279Z,98242.94
2022-09-21T22:31:11.069Z,98226.47
2022-09-21T22:33:41.088Z,98242.84
2022-09-21T22:36:11.390Z,98250.00
2022-09-21T22:38:42.952Z,98239.63
2022-09-21T22:41:13.192Z,98226.59
2022-09-21T22:43:42.092Z,98246.56
2022-09-21T22:46:10.351Z,98247.44
2022-09-21T22:48:38.541Z,98244.88
2022-09-21T22:51:08.211Z,98236.91
2022-09-21T22:53:36.438Z,98235.25
2022-09-21T22:56:07.179Z,98238.72
2022-09-21T22:58:37.576Z,98235.28
2022-09-21T23:01:07.537Z,98235.25
2022-09-21T23:03:36.975Z,98150.44
2022-09-21T23:06:05.949Z,98230.06
2022-09-21T23:08:35.692Z,98224.97
2022-09-21T23:11:08.841Z,98223.22
2022-09-21T23:13:37.235Z,98219.78
2022-09-21T23:16:06.350Z,98224.19
2022-09-21T23:18:35.055Z,98219.78
2022-09-21T23:21:05.897Z,98218.06
2022-09-21T23:23:35.900Z,98206.81
2022-09-21T23:26:09.598Z,98181.06
2022-09-21T23:28:39.411Z,98210.59
2022-09-21T23:31:10.175Z,98177.78
2022-09-21T23:33:40.012Z,98148.38
2022-09-21T23:36:10.015Z,98206.31
2022-09-21T23:38:40.072Z,98217.59
2022-09-21T23:41:10.362Z,98215.13
2022-09-21T23:43:40.439Z,98214.31
2022-09-21T23:46:09.659Z,98210.88
2022-09-21T23:48:38.291Z,98219.63
2022-09-21T23:51:07.553Z,98217.97
2022-09-21T23:53:36.552Z,98189.41
2022-09-21T23:56:07.659Z,98223.22
2022-09-21T23:58:35.899Z,98234.72
